sensor_id;sensor_type;location;lat;lon;timestamp;temperature;humidity
11836;DHT22;5977;51.972;7.640;2022-12-08T00:01:29;14.60;76.90
11836;DHT22;5977;51.972;7.640;2022-12-08T00:03:58;14.50;77.00
11836;DHT22;5977;51.972;7.640;2022-12-08T00:06:29;14.60;77.50
11836;DHT22;5977;51.972;7.640;2022-12-08T00:09:17;14.60;77.40
11836;DHT22;5977;51.972;7.640;2022-12-08T00:11:54;14.60;77.80
11836;DHT22;5977;51.972;7.640;2022-12-08T00:14:24;14.60;77.40
11836;DHT22;5977;51.972;7.640;2022-12-08T00:16:52;14.60;77.10
11836;DHT22;5977;51.972;7.640;2022-12-08T00:19:21;14.60;77.00
11836;DHT22;5977;51.972;7.640;2022-12-08T00:21:51;14.60;77.20
11836;DHT22;5977;51.972;7.640;2022-12-08T00:24:19;14.60;77.40
11836;DHT22;5977;51.972;7.640;2022-12-08T00:26:47;14.60;76.80
11836;DHT22;5977;51.972;7.640;2022-12-08T00:29:15;14.60;76.80
11836;DHT22;5977;51.972;7.640;2022-12-08T00:31:43;14.60;76.80
11836;DHT22;5977;51.972;7.640;2022-12-08T00:34:12;14.50;77.20
11836;DHT22;5977;51.972;7.640;2022-12-08T00:36:40;14.40;77.30
11836;DHT22;5977;51.972;7.640;2022-12-08T00:39:09;14.40;77.10
11836;DHT22;5977;51.972;7.640;2022-12-08T00:41:38;14.50;76.80
11836;DHT22;5977;51.972;7.640;2022-12-08T00:44:23;14.50;76.60
11836;DHT22;5977;51.972;7.640;2022-12-08T00:46:51;14.50;76.70
11836;DHT22;5977;51.972;7.640;2022-12-08T00:49:20;14.50;76.90
11836;DHT22;5977;51.972;7.640;2022-12-08T00:51:48;14.50;77.10
11836;DHT22;5977;51.972;7.640;2022-12-08T00:54:17;14.60;77.20
11836;DHT22;5977;51.972;7.640;2022-12-08T00:56:45;14.50;77.20
11836;DHT22;5977;51.972;7.640;2022-12-08T00:59:13;14.60;77.40
11836;DHT22;5977;51.972;7.640;2022-12-08T01:01:43;14.50;76.80
11836;DHT22;5977;51.972;7.640;2022-12-08T01:04:13;14.60;77.20
11836;DHT22;5977;51.972;7.640;2022-12-08T01:06:42;14.40;77.00
11836;DHT22;5977;51.972;7.640;2022-12-08T01:09:12;14.60;77.50
11836;DHT22;5977;51.972;7.640;2022-12-08T01:11:42;14.50;76.60
11836;DHT22;5977;51.972;7.640;2022-12-08T01:14:11;14.50;77.60
11836;DHT22;5977;51.972;7.640;2022-12-08T01:16:39;14.50;77.60
11836;DHT22;5977;51.972;7.640;2022-12-08T01:19:09;14.50;77.60
11836;DHT22;5977;51.972;7.640;2022-12-08T01:21:38;14.50;77.30
11836;DHT22;5977;51.972;7.640;2022-12-08T01:24:08;14.50;77.80
11836;DHT22;5977;51.972;7.640;2022-12-08T01:26:37;14.50;77.40
11836;DHT22;5977;51.972;7.640;2022-12-08T01:29:06;14.50;77.90
11836;DHT22;5977;51.972;7.640;2022-12-08T01:31:34;14.50;77.60
11836;DHT22;5977;51.972;7.640;2022-12-08T01:34:02;14.50;77.10
11836;DHT22;5977;51.972;7.640;2022-12-08T01:36:31;14.50;77.20
11836;DHT22;5977;51.972;7.640;2022-12-08T01:39:04;14.50;77.90
11836;DHT22;5977;51.972;7.640;2022-12-08T01:41:34;14.50;77.90
11836;DHT22;5977;51.972;7.640;2022-12-08T01:47:11;14.60;77.80
11836;DHT22;5977;51.972;7.640;2022-12-08T01:49:39;14.60;77.60
11836;DHT22;5977;51.972;7.640;2022-12-08T01:52:12;14.60;77.60
11836;DHT22;5977;51.972;7.640;2022-12-08T01:54:44;14.60;77.30
11836;DHT22;5977;51.972;7.640;2022-12-08T01:57:16;14.60;77.80
11836;DHT22;5977;51.972;7.640;2022-12-08T01:59:48;14.60;76.80
11836;DHT22;5977;51.972;7.640;2022-12-08T02:02:20;14.60;76.80
11836;DHT22;5977;51.972;7.640;2022-12-08T02:04:48;14.50;76.20
11836;DHT22;5977;51.972;7.640;2022-12-08T02:07:16;14.60;77.20
11836;DHT22;5977;51.972;7.640;2022-12-08T02:09:45;14.70;77.00
11836;DHT22;5977;51.972;7.640;2022-12-08T02:12:13;14.60;77.10
11836;DHT22;5977;51.972;7.640;2022-12-08T02:14:41;14.60;77.10
11836;DHT22;5977;51.972;7.640;2022-12-08T02:17:21;14.50;76.80
11836;DHT22;5977;51.972;7.640;2022-12-08T02:23:00;14.60;76.90
11836;DHT22;5977;51.972;7.640;2022-12-08T02:25:35;14.60;76.80
11836;DHT22;5977;51.972;7.640;2022-12-08T02:28:34;14.70;77.00
11836;DHT22;5977;51.972;7.640;2022-12-08T02:31:10;14.70;77.10
11836;DHT22;5977;51.972;7.640;2022-12-08T02:34:08;14.70;76.40
11836;DHT22;5977;51.972;7.640;2022-12-08T02:36:45;14.70;77.00
11836;DHT22;5977;51.972;7.640;2022-12-08T02:39:24;14.70;77.00
11836;DHT22;5977;51.972;7.640;2022-12-08T02:42:01;14.70;76.70
11836;DHT22;5977;51.972;7.640;2022-12-08T02:44:37;14.70;77.10
11836;DHT22;5977;51.972;7.640;2022-12-08T02:47:09;14.70;77.00
11836;DHT22;5977;51.972;7.640;2022-12-08T02:49:39;14.70;77.20
11836;DHT22;5977;51.972;7.640;2022-12-08T02:52:42;14.60;77.40
11836;DHT22;5977;51.972;7.640;2022-12-08T02:55:17;14.60;77.80
11836;DHT22;5977;51.972;7.640;2022-12-08T03:00:52;14.60;77.40
11836;DHT22;5977;51.972;7.640;2022-12-08T03:03:29;14.50;77.40
11836;DHT22;5977;51.972;7.640;2022-12-08T03:06:07;14.60;77.90
11836;DHT22;5977;51.972;7.640;2022-12-08T03:08:44;14.60;77.70
11836;DHT22;5977;51.972;7.640;2022-12-08T03:11:20;14.70;77.70
11836;DHT22;5977;51.972;7.640;2022-12-08T03:13:53;14.70;77.90
11836;DHT22;5977;51.972;7.640;2022-12-08T03:16:24;14.70;77.70
11836;DHT22;5977;51.972;7.640;2022-12-08T03:19:02;14.60;77.10
11836;DHT22;5977;51.972;7.640;2022-12-08T03:21:32;14.60;77.30
11836;DHT22;5977;51.972;7.640;2022-12-08T03:24:05;14.60;77.60
11836;DHT22;5977;51.972;7.640;2022-12-08T03:26:37;14.70;77.50
11836;DHT22;5977;51.972;7.640;2022-12-08T03:29:07;14.70;77.10
11836;DHT22;5977;51.972;7.640;2022-12-08T03:31:38;14.60;77.00
11836;DHT22;5977;51.972;7.640;2022-12-08T03:34:09;14.60;76.90
11836;DHT22;5977;51.972;7.640;2022-12-08T03:36:38;14.60;76.70
11836;DHT22;5977;51.972;7.640;2022-12-08T03:39:08;14.60;76.90
11836;DHT22;5977;51.972;7.640;2022-12-08T03:41:36;14.60;76.70
11836;DHT22;5977;51.972;7.640;2022-12-08T03:44:04;14.60;76.80
11836;DHT22;5977;51.972;7.640;2022-12-08T03:46:31;14.70;77.20
11836;DHT22;5977;51.972;7.640;2022-12-08T03:48:59;14.60;76.60
11836;DHT22;5977;51.972;7.640;2022-12-08T03:51:27;14.70;76.50
11836;DHT22;5977;51.972;7.640;2022-12-08T03:53:55;14.70;76.50
11836;DHT22;5977;51.972;7.640;2022-12-08T03:56:26;14.60;76.30
11836;DHT22;5977;51.972;7.640;2022-12-08T03:58:54;14.70;77.00
11836;DHT22;5977;51.972;7.640;2022-12-08T04:01:22;14.60;77.10
11836;DHT22;5977;51.972;7.640;2022-12-08T04:03:50;14.60;76.40
11836;DHT22;5977;51.972;7.640;2022-12-08T04:06:19;14.50;76.60
11836;DHT22;5977;51.972;7.640;2022-12-08T04:08:47;14.60;77.30
11836;DHT22;5977;51.972;7.640;2022-12-08T04:11:16;14.60;77.10
11836;DHT22;5977;51.972;7.640;2022-12-08T04:13:45;14.70;76.90
11836;DHT22;5977;51.972;7.640;2022-12-08T04:16:14;14.70;77.20
11836;DHT22;5977;51.972;7.640;2022-12-08T04:18:43;14.70;76.50
11836;DHT22;5977;51.972;7.640;2022-12-08T04:21:11;14.70;77.70
11836;DHT22;5977;51.972;7.640;2022-12-08T04:23:39;14.70;77.00
11836;DHT22;5977;51.972;7.640;2022-12-08T04:26:07;14.70;76.80
11836;DHT22;5977;51.972;7.640;2022-12-08T04:28:36;14.70;77.20
11836;DHT22;5977;51.972;7.640;2022-12-08T04:31:05;14.70;77.40
11836;DHT22;5977;51.972;7.640;2022-12-08T04:33:33;14.60;77.00
11836;DHT22;5977;51.972;7.640;2022-12-08T04:36:02;14.60;77.40
11836;DHT22;5977;51.972;7.640;2022-12-08T04:38:30;14.60;77.70
11836;DHT22;5977;51.972;7.640;2022-12-08T04:40:58;14.50;77.50
11836;DHT22;5977;51.972;7.640;2022-12-08T04:43:26;14.60;77.70
11836;DHT22;5977;51.972;7.640;2022-12-08T04:45:54;14.60;77.20
11836;DHT22;5977;51.972;7.640;2022-12-08T04:48:23;14.50;76.90
11836;DHT22;5977;51.972;7.640;2022-12-08T04:50:51;14.60;76.90
11836;DHT22;5977;51.972;7.640;2022-12-08T04:53:19;14.60;76.90
11836;DHT22;5977;51.972;7.640;2022-12-08T04:55:47;14.50;77.00
11836;DHT22;5977;51.972;7.640;2022-12-08T04:58:17;14.50;77.00
11836;DHT22;5977;51.972;7.640;2022-12-08T05:00:45;14.60;76.80
11836;DHT22;5977;51.972;7.640;2022-12-08T05:03:14;14.50;76.60
11836;DHT22;5977;51.972;7.640;2022-12-08T05:05:43;14.60;77.80
11836;DHT22;5977;51.972;7.640;2022-12-08T05:08:12;14.70;78.00
11836;DHT22;5977;51.972;7.640;2022-12-08T05:10:40;14.70;77.50
11836;DHT22;5977;51.972;7.640;2022-12-08T05:13:08;14.70;77.40
11836;DHT22;5977;51.972;7.640;2022-12-08T05:15:36;14.90;77.50
11836;DHT22;5977;51.972;7.640;2022-12-08T05:18:04;14.80;77.30
11836;DHT22;5977;51.972;7.640;2022-12-08T05:20:33;14.80;77.00
11836;DHT22;5977;51.972;7.640;2022-12-08T05:23:02;14.90;76.90
11836;DHT22;5977;51.972;7.640;2022-12-08T05:25:30;14.90;76.70
11836;DHT22;5977;51.972;7.640;2022-12-08T05:27:58;14.90;76.40
11836;DHT22;5977;51.972;7.640;2022-12-08T05:30:46;14.90;76.20
11836;DHT22;5977;51.972;7.640;2022-12-08T05:33:14;14.80;76.30
11836;DHT22;5977;51.972;7.640;2022-12-08T05:35:41;14.80;76.20
11836;DHT22;5977;51.972;7.640;2022-12-08T05:38:11;14.90;76.30
11836;DHT22;5977;51.972;7.640;2022-12-08T05:40:39;14.90;76.30
11836;DHT22;5977;51.972;7.640;2022-12-08T05:43:09;14.90;76.10
11836;DHT22;5977;51.972;7.640;2022-12-08T05:45:36;15.00;76.20
11836;DHT22;5977;51.972;7.640;2022-12-08T05:48:05;14.90;75.80
11836;DHT22;5977;51.972;7.640;2022-12-08T05:50:32;14.90;76.40
11836;DHT22;5977;51.972;7.640;2022-12-08T05:53:03;15.00;75.20
11836;DHT22;5977;51.972;7.640;2022-12-08T05:55:32;14.90;76.00
11836;DHT22;5977;51.972;7.640;2022-12-08T05:58:00;14.90;75.80
11836;DHT22;5977;51.972;7.640;2022-12-08T06:00:33;14.90;75.50
11836;DHT22;5977;51.972;7.640;2022-12-08T06:03:01;14.90;75.70
11836;DHT22;5977;51.972;7.640;2022-12-08T06:05:31;14.90;75.70
11836;DHT22;5977;51.972;7.640;2022-12-08T06:07:59;14.90;75.60
11836;DHT22;5977;51.972;7.640;2022-12-08T06:10:27;14.90;75.90
11836;DHT22;5977;51.972;7.640;2022-12-08T06:12:57;15.00;75.50
11836;DHT22;5977;51.972;7.640;2022-12-08T06:15:25;15.00;75.50
11836;DHT22;5977;51.972;7.640;2022-12-08T06:17:53;14.90;75.40
11836;DHT22;5977;51.972;7.640;2022-12-08T06:20:21;15.00;75.90
11836;DHT22;5977;51.972;7.640;2022-12-08T06:22:49;15.00;75.60
11836;DHT22;5977;51.972;7.640;2022-12-08T06:25:17;15.00;75.60
11836;DHT22;5977;51.972;7.640;2022-12-08T06:27:44;15.00;74.90
11836;DHT22;5977;51.972;7.640;2022-12-08T06:30:14;15.00;75.50
11836;DHT22;5977;51.972;7.640;2022-12-08T06:32:42;15.00;75.30
11836;DHT22;5977;51.972;7.640;2022-12-08T06:35:10;15.10;75.60
11836;DHT22;5977;51.972;7.640;2022-12-08T06:37:38;15.10;75.10
11836;DHT22;5977;51.972;7.640;2022-12-08T06:40:07;15.20;75.00
11836;DHT22;5977;51.972;7.640;2022-12-08T06:42:35;15.00;74.60
11836;DHT22;5977;51.972;7.640;2022-12-08T06:45:16;15.00;74.20
11836;DHT22;5977;51.972;7.640;2022-12-08T06:47:44;14.90;74.30
11836;DHT22;5977;51.972;7.640;2022-12-08T06:50:12;15.00;74.60
11836;DHT22;5977;51.972;7.640;2022-12-08T06:52:40;15.10;74.00
11836;DHT22;5977;51.972;7.640;2022-12-08T06:55:24;15.10;74.60
11836;DHT22;5977;51.972;7.640;2022-12-08T06:58:12;15.00;74.20
11836;DHT22;5977;51.972;7.640;2022-12-08T07:00:42;15.00;74.30
11836;DHT22;5977;51.972;7.640;2022-12-08T07:03:11;15.00;74.40
11836;DHT22;5977;51.972;7.640;2022-12-08T07:05:39;15.10;75.00
11836;DHT22;5977;51.972;7.640;2022-12-08T07:08:08;15.10;74.00
11836;DHT22;5977;51.972;7.640;2022-12-08T07:10:36;15.10;74.60
11836;DHT22;5977;51.972;7.640;2022-12-08T07:13:04;15.10;74.50
11836;DHT22;5977;51.972;7.640;2022-12-08T07:15:32;15.00;74.30
11836;DHT22;5977;51.972;7.640;2022-12-08T07:18:02;15.00;74.80
11836;DHT22;5977;51.972;7.640;2022-12-08T07:20:30;15.00;74.40
11836;DHT22;5977;51.972;7.640;2022-12-08T07:22:57;15.00;74.30
11836;DHT22;5977;51.972;7.640;2022-12-08T07:25:25;15.00;74.20
11836;DHT22;5977;51.972;7.640;2022-12-08T07:27:53;15.10;74.60
11836;DHT22;5977;51.972;7.640;2022-12-08T07:30:21;15.20;74.60
11836;DHT22;5977;51.972;7.640;2022-12-08T07:32:49;15.10;74.60
11836;DHT22;5977;51.972;7.640;2022-12-08T07:35:18;15.10;74.40
11836;DHT22;5977;51.972;7.640;2022-12-08T07:37:46;15.20;75.30
11836;DHT22;5977;51.972;7.640;2022-12-08T07:40:14;15.10;74.20
11836;DHT22;5977;51.972;7.640;2022-12-08T07:42:42;15.10;74.50
11836;DHT22;5977;51.972;7.640;2022-12-08T07:45:10;15.10;74.90
11836;DHT22;5977;51.972;7.640;2022-12-08T07:47:38;15.10;74.50
11836;DHT22;5977;51.972;7.640;2022-12-08T07:50:07;15.10;74.40
11836;DHT22;5977;51.972;7.640;2022-12-08T07:52:36;15.20;74.90
11836;DHT22;5977;51.972;7.640;2022-12-08T07:55:04;15.10;74.30
11836;DHT22;5977;51.972;7.640;2022-12-08T07:57:32;15.20;74.50
11836;DHT22;5977;51.972;7.640;2022-12-08T08:00:01;15.10;74.00
11836;DHT22;5977;51.972;7.640;2022-12-08T08:02:37;15.10;74.70
11836;DHT22;5977;51.972;7.640;2022-12-08T08:05:06;15.10;74.70
11836;DHT22;5977;51.972;7.640;2022-12-08T08:07:35;15.20;74.50
11836;DHT22;5977;51.972;7.640;2022-12-08T08:10:04;15.20;74.80
11836;DHT22;5977;51.972;7.640;2022-12-08T08:12:33;15.00;73.90
11836;DHT22;5977;51.972;7.640;2022-12-08T08:15:05;15.80;75.00
11836;DHT22;5977;51.972;7.640;2022-12-08T08:17:34;16.30;72.80
11836;DHT22;5977;51.972;7.640;2022-12-08T08:20:03;16.50;71.90
11836;DHT22;5977;51.972;7.640;2022-12-08T08:22:33;16.70;71.50
11836;DHT22;5977;51.972;7.640;2022-12-08T08:25:03;16.80;71.20
11836;DHT22;5977;51.972;7.640;2022-12-08T08:27:31;16.90;71.10
11836;DHT22;5977;51.972;7.640;2022-12-08T08:29:59;16.90;70.80
11836;DHT22;5977;51.972;7.640;2022-12-08T08:32:27;16.90;71.00
11836;DHT22;5977;51.972;7.640;2022-12-08T08:34:58;16.90;71.10
11836;DHT22;5977;51.972;7.640;2022-12-08T08:37:26;16.90;71.30
11836;DHT22;5977;51.972;7.640;2022-12-08T08:39:54;17.00;71.50
11836;DHT22;5977;51.972;7.640;2022-12-08T08:42:23;17.00;71.70
11836;DHT22;5977;51.972;7.640;2022-12-08T08:44:51;17.00;71.60
11836;DHT22;5977;51.972;7.640;2022-12-08T08:47:20;17.00;71.70
11836;DHT22;5977;51.972;7.640;2022-12-08T08:49:48;17.00;71.90
11836;DHT22;5977;51.972;7.640;2022-12-08T08:52:16;17.10;71.90
11836;DHT22;5977;51.972;7.640;2022-12-08T08:54:43;17.10;72.00
11836;DHT22;5977;51.972;7.640;2022-12-08T08:57:11;17.10;72.30
11836;DHT22;5977;51.972;7.640;2022-12-08T08:59:40;17.10;72.30
11836;DHT22;5977;51.972;7.640;2022-12-08T09:02:15;17.10;72.40
11836;DHT22;5977;51.972;7.640;2022-12-08T09:04:43;17.10;72.50
11836;DHT22;5977;51.972;7.640;2022-12-08T09:07:12;17.10;72.80
11836;DHT22;5977;51.972;7.640;2022-12-08T09:09:39;17.10;72.90
11836;DHT22;5977;51.972;7.640;2022-12-08T09:12:07;17.10;72.80
11836;DHT22;5977;51.972;7.640;2022-12-08T09:14:35;17.10;73.00
11836;DHT22;5977;51.972;7.640;2022-12-08T09:17:07;17.10;72.90
11836;DHT22;5977;51.972;7.640;2022-12-08T09:19:35;17.10;72.90
11836;DHT22;5977;51.972;7.640;2022-12-08T09:22:03;17.10;72.90
11836;DHT22;5977;51.972;7.640;2022-12-08T09:24:31;17.10;72.90
11836;DHT22;5977;51.972;7.640;2022-12-08T09:26:59;17.10;72.90
11836;DHT22;5977;51.972;7.640;2022-12-08T09:29:27;17.10;72.90
11836;DHT22;5977;51.972;7.640;2022-12-08T09:32:02;17.10;73.00
11836;DHT22;5977;51.972;7.640;2022-12-08T09:34:31;17.10;73.00
11836;DHT22;5977;51.972;7.640;2022-12-08T09:36:59;17.10;73.10
11836;DHT22;5977;51.972;7.640;2022-12-08T09:39:27;17.10;73.00
11836;DHT22;5977;51.972;7.640;2022-12-08T09:41:58;17.10;73.20
11836;DHT22;5977;51.972;7.640;2022-12-08T09:44:46;17.00;72.70
11836;DHT22;5977;51.972;7.640;2022-12-08T09:47:19;16.90;72.50
11836;DHT22;5977;51.972;7.640;2022-12-08T09:49:54;17.00;72.70
11836;DHT22;5977;51.972;7.640;2022-12-08T09:52:25;17.00;72.80
11836;DHT22;5977;51.972;7.640;2022-12-08T09:54:58;17.00;72.70
11836;DHT22;5977;51.972;7.640;2022-12-08T09:57:27;17.10;72.80
11836;DHT22;5977;51.972;7.640;2022-12-08T10:00:00;17.10;72.80
11836;DHT22;5977;51.972;7.640;2022-12-08T10:02:30;17.10;73.10
11836;DHT22;5977;51.972;7.640;2022-12-08T10:05:00;17.10;73.10
11836;DHT22;5977;51.972;7.640;2022-12-08T10:07:36;17.10;73.10
11836;DHT22;5977;51.972;7.640;2022-12-08T10:10:13;17.10;73.20
11836;DHT22;5977;51.972;7.640;2022-12-08T10:12:51;17.10;73.30
11836;DHT22;5977;51.972;7.640;2022-12-08T10:15:34;17.10;73.30
11836;DHT22;5977;51.972;7.640;2022-12-08T10:18:10;17.10;73.40
11836;DHT22;5977;51.972;7.640;2022-12-08T10:20:42;17.10;73.50
11836;DHT22;5977;51.972;7.640;2022-12-08T10:23:21;17.10;73.60
11836;DHT22;5977;51.972;7.640;2022-12-08T10:25:54;17.10;73.70
11836;DHT22;5977;51.972;7.640;2022-12-08T10:28:24;17.10;73.80
11836;DHT22;5977;51.972;7.640;2022-12-08T10:30:52;17.10;73.90
11836;DHT22;5977;51.972;7.640;2022-12-08T10:33:21;17.10;73.90
11836;DHT22;5977;51.972;7.640;2022-12-08T10:35:52;17.10;73.90
11836;DHT22;5977;51.972;7.640;2022-12-08T10:38:25;17.10;73.90
11836;DHT22;5977;51.972;7.640;2022-12-08T10:40:59;17.10;73.90
11836;DHT22;5977;51.972;7.640;2022-12-08T10:43:30;17.10;73.90
11836;DHT22;5977;51.972;7.640;2022-12-08T10:46:07;17.10;74.00
11836;DHT22;5977;51.972;7.640;2022-12-08T10:48:36;17.10;74.00
11836;DHT22;5977;51.972;7.640;2022-12-08T10:51:24;17.10;74.10
11836;DHT22;5977;51.972;7.640;2022-12-08T10:53:53;17.10;74.00
11836;DHT22;5977;51.972;7.640;2022-12-08T10:56:24;17.10;74.10
11836;DHT22;5977;51.972;7.640;2022-12-08T10:59:05;17.10;74.20
11836;DHT22;5977;51.972;7.640;2022-12-08T11:01:37;17.10;74.20
11836;DHT22;5977;51.972;7.640;2022-12-08T11:04:12;17.10;74.00
11836;DHT22;5977;51.972;7.640;2022-12-08T11:06:43;16.90;73.70
11836;DHT22;5977;51.972;7.640;2022-12-08T11:09:38;17.00;73.80
11836;DHT22;5977;51.972;7.640;2022-12-08T11:12:13;17.00;73.80
11836;DHT22;5977;51.972;7.640;2022-12-08T11:14:47;17.10;73.80
11836;DHT22;5977;51.972;7.640;2022-12-08T11:17:22;17.10;73.80
11836;DHT22;5977;51.972;7.640;2022-12-08T11:19:56;16.90;73.10
11836;DHT22;5977;51.972;7.640;2022-12-08T11:22:29;16.80;72.40
11836;DHT22;5977;51.972;7.640;2022-12-08T11:24:59;16.80;72.50
11836;DHT22;5977;51.972;7.640;2022-12-08T11:27:28;16.80;72.80
11836;DHT22;5977;51.972;7.640;2022-12-08T11:29:59;16.90;72.80
11836;DHT22;5977;51.972;7.640;2022-12-08T11:32:28;16.90;72.80
11836;DHT22;5977;51.972;7.640;2022-12-08T11:34:58;16.90;72.90
11836;DHT22;5977;51.972;7.640;2022-12-08T11:37:32;16.90;72.80
11836;DHT22;5977;51.972;7.640;2022-12-08T11:40:06;16.90;72.80
11836;DHT22;5977;51.972;7.640;2022-12-08T11:42:45;16.90;72.70
11836;DHT22;5977;51.972;7.640;2022-12-08T11:45:20;17.00;72.80
11836;DHT22;5977;51.972;7.640;2022-12-08T11:47:57;17.00;72.90
11836;DHT22;5977;51.972;7.640;2022-12-08T11:50:31;17.00;72.90
11836;DHT22;5977;51.972;7.640;2022-12-08T11:53:07;17.00;72.90
11836;DHT22;5977;51.972;7.640;2022-12-08T11:55:42;17.00;73.20
11836;DHT22;5977;51.972;7.640;2022-12-08T11:58:17;17.00;73.30
11836;DHT22;5977;51.972;7.640;2022-12-08T12:00:46;17.10;73.30
11836;DHT22;5977;51.972;7.640;2022-12-08T12:03:22;17.10;73.30
11836;DHT22;5977;51.972;7.640;2022-12-08T12:06:22;16.90;72.80
11836;DHT22;5977;51.972;7.640;2022-12-08T12:09:18;16.80;72.40
11836;DHT22;5977;51.972;7.640;2022-12-08T12:12:01;16.70;72.00
11836;DHT22;5977;51.972;7.640;2022-12-08T12:14:55;16.60;71.70
11836;DHT22;5977;51.972;7.640;2022-12-08T12:17:38;16.70;71.80
11836;DHT22;5977;51.972;7.640;2022-12-08T12:20:14;16.80;72.00
11836;DHT22;5977;51.972;7.640;2022-12-08T12:22:45;16.80;71.80
11836;DHT22;5977;51.972;7.640;2022-12-08T12:25:19;16.70;71.30
11836;DHT22;5977;51.972;7.640;2022-12-08T12:27:47;16.70;71.00
11836;DHT22;5977;51.972;7.640;2022-12-08T12:30:22;16.60;70.80
11836;DHT22;5977;51.972;7.640;2022-12-08T12:32:53;16.60;70.50
11836;DHT22;5977;51.972;7.640;2022-12-08T12:35:30;16.60;70.30
11836;DHT22;5977;51.972;7.640;2022-12-08T12:38:02;16.60;70.50
11836;DHT22;5977;51.972;7.640;2022-12-08T12:40:58;16.70;72.40
11836;DHT22;5977;51.972;7.640;2022-12-08T12:43:30;16.90;72.50
11836;DHT22;5977;51.972;7.640;2022-12-08T12:52:00;17.00;72.50
11836;DHT22;5977;51.972;7.640;2022-12-08T12:54:28;16.90;72.40
11836;DHT22;5977;51.972;7.640;2022-12-08T12:57:15;16.80;72.30
11836;DHT22;5977;51.972;7.640;2022-12-08T13:00:05;16.70;72.20
11836;DHT22;5977;51.972;7.640;2022-12-08T13:02:38;16.80;72.60
11836;DHT22;5977;51.972;7.640;2022-12-08T13:05:12;16.90;72.80
11836;DHT22;5977;51.972;7.640;2022-12-08T13:07:43;16.90;72.90
11836;DHT22;5977;51.972;7.640;2022-12-08T13:10:18;17.00;72.80
11836;DHT22;5977;51.972;7.640;2022-12-08T13:13:03;17.10;72.90
11836;DHT22;5977;51.972;7.640;2022-12-08T13:15:36;17.10;73.00
11836;DHT22;5977;51.972;7.640;2022-12-08T13:18:17;17.20;73.10
11836;DHT22;5977;51.972;7.640;2022-12-08T13:20:49;17.20;73.20
11836;DHT22;5977;51.972;7.640;2022-12-08T13:23:41;17.20;73.20
11836;DHT22;5977;51.972;7.640;2022-12-08T13:26:17;17.20;74.00
11836;DHT22;5977;51.972;7.640;2022-12-08T13:29:17;17.20;73.50
11836;DHT22;5977;51.972;7.640;2022-12-08T13:31:47;17.20;73.60
11836;DHT22;5977;51.972;7.640;2022-12-08T13:34:26;17.20;73.40
11836;DHT22;5977;51.972;7.640;2022-12-08T13:37:03;17.10;73.40
11836;DHT22;5977;51.972;7.640;2022-12-08T13:39:40;17.00;73.40
11836;DHT22;5977;51.972;7.640;2022-12-08T13:42:18;16.90;73.00
11836;DHT22;5977;51.972;7.640;2022-12-08T13:44:53;16.80;72.90
11836;DHT22;5977;51.972;7.640;2022-12-08T13:47:45;16.90;73.10
11836;DHT22;5977;51.972;7.640;2022-12-08T13:50:38;17.00;73.30
11836;DHT22;5977;51.972;7.640;2022-12-08T13:53:28;17.10;74.10
11836;DHT22;5977;51.972;7.640;2022-12-08T13:56:18;17.10;73.30
11836;DHT22;5977;51.972;7.640;2022-12-08T13:59:09;17.10;73.50
11836;DHT22;5977;51.972;7.640;2022-12-08T14:01:51;17.20;73.60
11836;DHT22;5977;51.972;7.640;2022-12-08T14:04:20;17.20;73.60
11836;DHT22;5977;51.972;7.640;2022-12-08T14:07:10;17.20;73.80
11836;DHT22;5977;51.972;7.640;2022-12-08T14:09:39;17.20;74.10
11836;DHT22;5977;51.972;7.640;2022-12-08T14:12:15;17.30;74.90
11836;DHT22;5977;51.972;7.640;2022-12-08T14:14:45;17.30;74.70
11836;DHT22;5977;51.972;7.640;2022-12-08T14:17:32;17.30;75.00
11836;DHT22;5977;51.972;7.640;2022-12-08T14:20:02;17.30;75.20
11836;DHT22;5977;51.972;7.640;2022-12-08T14:22:33;17.30;75.10
11836;DHT22;5977;51.972;7.640;2022-12-08T14:25:01;17.10;74.80
11836;DHT22;5977;51.972;7.640;2022-12-08T14:27:32;17.10;74.80
11836;DHT22;5977;51.972;7.640;2022-12-08T14:30:04;17.00;74.70
11836;DHT22;5977;51.972;7.640;2022-12-08T14:32:37;17.00;74.70
11836;DHT22;5977;51.972;7.640;2022-12-08T14:35:17;16.90;74.60
11836;DHT22;5977;51.972;7.640;2022-12-08T14:37:46;16.90;74.60
11836;DHT22;5977;51.972;7.640;2022-12-08T14:40:20;16.90;74.50
11836;DHT22;5977;51.972;7.640;2022-12-08T14:42:51;16.80;74.40
11836;DHT22;5977;51.972;7.640;2022-12-08T14:45:20;16.80;74.30
11836;DHT22;5977;51.972;7.640;2022-12-08T14:47:49;16.80;74.30
11836;DHT22;5977;51.972;7.640;2022-12-08T14:50:37;16.80;74.20
11836;DHT22;5977;51.972;7.640;2022-12-08T14:53:11;16.80;74.20
11836;DHT22;5977;51.972;7.640;2022-12-08T14:55:39;16.80;74.10
11836;DHT22;5977;51.972;7.640;2022-12-08T14:58:16;16.70;74.10
11836;DHT22;5977;51.972;7.640;2022-12-08T15:00:45;16.70;74.00
11836;DHT22;5977;51.972;7.640;2022-12-08T15:03:16;16.70;74.00
11836;DHT22;5977;51.972;7.640;2022-12-08T15:05:45;16.70;74.00
11836;DHT22;5977;51.972;7.640;2022-12-08T15:08:17;16.70;74.00
11836;DHT22;5977;51.972;7.640;2022-12-08T15:10:45;16.70;74.00
11836;DHT22;5977;51.972;7.640;2022-12-08T15:13:21;16.70;74.00
11836;DHT22;5977;51.972;7.640;2022-12-08T15:15:50;16.60;73.90
11836;DHT22;5977;51.972;7.640;2022-12-08T15:18:27;16.60;73.90
11836;DHT22;5977;51.972;7.640;2022-12-08T15:21:01;16.60;74.00
11836;DHT22;5977;51.972;7.640;2022-12-08T15:23:31;16.50;73.30
11836;DHT22;5977;51.972;7.640;2022-12-08T15:25:59;15.60;73.20
11836;DHT22;5977;51.972;7.640;2022-12-08T15:28:28;15.00;97.50
11836;DHT22;5977;51.972;7.640;2022-12-08T15:30:57;14.70;93.40
11836;DHT22;5977;51.972;7.640;2022-12-08T15:43:21;14.40;92.20
11836;DHT22;5977;51.972;7.640;2022-12-08T15:45:49;14.40;92.20
11836;DHT22;5977;51.972;7.640;2022-12-08T15:48:28;14.40;92.20
11836;DHT22;5977;51.972;7.640;2022-12-08T15:50:57;13.90;75.20
11836;DHT22;5977;51.972;7.640;2022-12-08T15:53:25;14.00;76.50
11836;DHT22;5977;51.972;7.640;2022-12-08T15:55:54;14.10;75.50
11836;DHT22;5977;51.972;7.640;2022-12-08T15:58:41;14.10;75.50
11836;DHT22;5977;51.972;7.640;2022-12-08T16:01:20;14.10;75.80
11836;DHT22;5977;51.972;7.640;2022-12-08T16:03:49;14.10;75.30
11836;DHT22;5977;51.972;7.640;2022-12-08T16:06:38;14.10;75.20
11836;DHT22;5977;51.972;7.640;2022-12-08T16:09:29;14.20;77.00
11836;DHT22;5977;51.972;7.640;2022-12-08T16:11:57;14.50;77.10
11836;DHT22;5977;51.972;7.640;2022-12-08T16:14:43;14.70;77.00
11836;DHT22;5977;51.972;7.640;2022-12-08T16:17:31;14.90;76.70
11836;DHT22;5977;51.972;7.640;2022-12-08T16:20:01;15.20;75.80
11836;DHT22;5977;51.972;7.640;2022-12-08T16:22:30;15.00;76.40
11836;DHT22;5977;51.972;7.640;2022-12-08T16:25:19;15.20;76.70
11836;DHT22;5977;51.972;7.640;2022-12-08T16:27:50;15.10;77.00
11836;DHT22;5977;51.972;7.640;2022-12-08T16:30:38;15.20;77.00
11836;DHT22;5977;51.972;7.640;2022-12-08T16:33:06;15.30;77.20
11836;DHT22;5977;51.972;7.640;2022-12-08T16:35:35;15.40;76.90
11836;DHT22;5977;51.972;7.640;2022-12-08T16:38:03;15.40;76.80
11836;DHT22;5977;51.972;7.640;2022-12-08T16:40:31;15.30;77.10
11836;DHT22;5977;51.972;7.640;2022-12-08T16:43:19;15.50;77.00